sensor_id;sensor_type;location;lat;lon;timestamp;temperature;humidity
39997;DHT22;25688;52.338;21.072;2024-03-08T00:00:43;-4.50;99.90
39997;DHT22;25688;52.338;21.072;2024-03-08T00:03:11;-4.50;99.90
39997;DHT22;25688;52.338;21.072;2024-03-08T00:05:37;-4.50;99.90
39997;DHT22;25688;52.338;21.072;2024-03-08T00:08:05;-4.60;99.90
39997;DHT22;25688;52.338;21.072;2024-03-08T00:10:31;-4.60;99.90
39997;DHT22;25688;52.338;21.072;2024-03-08T00:13:00;-4.60;99.90
39997;DHT22;25688;52.338;21.072;2024-03-08T00:15:30;-4.60;99.90
39997;DHT22;25688;52.338;21.072;2024-03-08T00:18:08;-4.70;99.90
39997;DHT22;25688;52.338;21.072;2024-03-08T00:20:33;-4.70;99.90
39997;DHT22;25688;52.338;21.072;2024-03-08T00:23:26;-4.90;99.90
39997;DHT22;25688;52.338;21.072;2024-03-08T00:26:34;-4.80;99.90
39997;DHT22;25688;52.338;21.072;2024-03-08T00:29:10;-4.80;99.90
39997;DHT22;25688;52.338;21.072;2024-03-08T00:35:21;-4.90;99.90
39997;DHT22;25688;52.338;21.072;2024-03-08T00:38:36;-4.90;99.90
39997;DHT22;25688;52.338;21.072;2024-03-08T00:41:01;-4.90;99.90
39997;DHT22;25688;52.338;21.072;2024-03-08T00:43:27;-4.80;99.90
39997;DHT22;25688;52.338;21.072;2024-03-08T00:45:55;-4.80;99.90
39997;DHT22;25688;52.338;21.072;2024-03-08T00:48:26;-4.80;99.90
39997;DHT22;25688;52.338;21.072;2024-03-08T00:50:51;-4.60;99.90
39997;DHT22;25688;52.338;21.072;2024-03-08T00:53:18;-4.60;99.90
39997;DHT22;25688;52.338;21.072;2024-03-08T00:55:46;-4.80;99.90
39997;DHT22;25688;52.338;21.072;2024-03-08T00:58:44;-4.80;99.90
39997;DHT22;25688;52.338;21.072;2024-03-08T01:04:58;-4.90;99.90
39997;DHT22;25688;52.338;21.072;2024-03-08T01:07:31;-5.00;99.90
39997;DHT22;25688;52.338;21.072;2024-03-08T01:10:03;-4.80;99.90
39997;DHT22;25688;52.338;21.072;2024-03-08T01:12:28;-5.00;99.90
39997;DHT22;25688;52.338;21.072;2024-03-08T01:14:57;-5.10;99.90
39997;DHT22;25688;52.338;21.072;2024-03-08T01:17:40;-5.20;99.90
39997;DHT22;25688;52.338;21.072;2024-03-08T01:20:08;-5.10;99.90
39997;DHT22;25688;52.338;21.072;2024-03-08T01:23:20;-5.30;99.90
39997;DHT22;25688;52.338;21.072;2024-03-08T01:25:48;-5.20;99.90
39997;DHT22;25688;52.338;21.072;2024-03-08T01:28:14;-5.10;99.90
39997;DHT22;25688;52.338;21.072;2024-03-08T01:30:40;-5.00;99.90
39997;DHT22;25688;52.338;21.072;2024-03-08T01:33:08;-5.20;99.90
39997;DHT22;25688;52.338;21.072;2024-03-08T01:35:34;-5.30;99.90
39997;DHT22;25688;52.338;21.072;2024-03-08T01:38:00;-5.20;99.90
39997;DHT22;25688;52.338;21.072;2024-03-08T01:40:25;-5.30;99.90
39997;DHT22;25688;52.338;21.072;2024-03-08T01:42:51;-5.30;99.90
39997;DHT22;25688;52.338;21.072;2024-03-08T01:45:18;-5.30;99.90
39997;DHT22;25688;52.338;21.072;2024-03-08T01:47:53;-5.30;99.90
39997;DHT22;25688;52.338;21.072;2024-03-08T01:50:31;-5.20;99.90
39997;DHT22;25688;52.338;21.072;2024-03-08T01:55:36;-5.50;99.90
39997;DHT22;25688;52.338;21.072;2024-03-08T01:58:05;-5.50;99.90
39997;DHT22;25688;52.338;21.072;2024-03-08T02:00:39;-5.40;99.90
39997;DHT22;25688;52.338;21.072;2024-03-08T02:03:17;-5.50;99.90
39997;DHT22;25688;52.338;21.072;2024-03-08T02:05:43;-5.60;99.90
39997;DHT22;25688;52.338;21.072;2024-03-08T02:08:09;-5.70;99.90
39997;DHT22;25688;52.338;21.072;2024-03-08T02:10:44;-5.60;99.90
39997;DHT22;25688;52.338;21.072;2024-03-08T02:13:11;-5.80;99.90
39997;DHT22;25688;52.338;21.072;2024-03-08T02:15:56;-5.70;99.90
39997;DHT22;25688;52.338;21.072;2024-03-08T02:18:23;-5.60;99.90
39997;DHT22;25688;52.338;21.072;2024-03-08T02:21:01;-5.60;99.90
39997;DHT22;25688;52.338;21.072;2024-03-08T02:23:28;-5.60;99.90
39997;DHT22;25688;52.338;21.072;2024-03-08T02:25:54;-5.60;99.90
39997;DHT22;25688;52.338;21.072;2024-03-08T02:28:21;-5.60;99.90
39997;DHT22;25688;52.338;21.072;2024-03-08T02:30:47;-5.70;99.90
39997;DHT22;25688;52.338;21.072;2024-03-08T02:33:16;-5.70;99.90
39997;DHT22;25688;52.338;21.072;2024-03-08T02:35:44;-5.50;99.90
39997;DHT22;25688;52.338;21.072;2024-03-08T02:38:20;-5.70;99.90
39997;DHT22;25688;52.338;21.072;2024-03-08T02:40:48;-5.60;99.90
39997;DHT22;25688;52.338;21.072;2024-03-08T02:43:15;-5.60;99.90
39997;DHT22;25688;52.338;21.072;2024-03-08T02:45:41;-5.60;99.90
39997;DHT22;25688;52.338;21.072;2024-03-08T02:48:07;-5.60;99.90
39997;DHT22;25688;52.338;21.072;2024-03-08T02:50:36;-5.60;99.90
39997;DHT22;25688;52.338;21.072;2024-03-08T02:53:06;-5.60;99.90
39997;DHT22;25688;52.338;21.072;2024-03-08T02:55:31;-5.70;99.90
39997;DHT22;25688;52.338;21.072;2024-03-08T02:57:59;-5.70;99.90
39997;DHT22;25688;52.338;21.072;2024-03-08T03:00:24;-5.70;99.90
39997;DHT22;25688;52.338;21.072;2024-03-08T03:02:50;-5.70;99.90
39997;DHT22;25688;52.338;21.072;2024-03-08T03:05:29;-5.80;99.90
39997;DHT22;25688;52.338;21.072;2024-03-08T03:08:04;-5.80;99.90
39997;DHT22;25688;52.338;21.072;2024-03-08T03:10:35;-5.90;99.90
39997;DHT22;25688;52.338;21.072;2024-03-08T03:13:01;-5.80;99.90
39997;DHT22;25688;52.338;21.072;2024-03-08T03:15:30;-5.80;99.90
39997;DHT22;25688;52.338;21.072;2024-03-08T03:17:55;-5.80;99.90
39997;DHT22;25688;52.338;21.072;2024-03-08T03:20:21;-5.80;99.90
39997;DHT22;25688;52.338;21.072;2024-03-08T03:22:52;-5.60;99.90
39997;DHT22;25688;52.338;21.072;2024-03-08T03:25:19;-5.80;99.90
39997;DHT22;25688;52.338;21.072;2024-03-08T03:27:53;-5.80;99.90
39997;DHT22;25688;52.338;21.072;2024-03-08T03:30:22;-5.90;99.90
39997;DHT22;25688;52.338;21.072;2024-03-08T03:32:49;-5.90;99.90
39997;DHT22;25688;52.338;21.072;2024-03-08T03:35:17;-5.90;99.90
39997;DHT22;25688;52.338;21.072;2024-03-08T03:37:43;-6.00;99.90
39997;DHT22;25688;52.338;21.072;2024-03-08T03:40:17;-6.10;99.90
39997;DHT22;25688;52.338;21.072;2024-03-08T03:42:44;-6.10;99.90
39997;DHT22;25688;52.338;21.072;2024-03-08T03:45:11;-6.00;99.90
39997;DHT22;25688;52.338;21.072;2024-03-08T03:54:22;-6.10;99.90
39997;DHT22;25688;52.338;21.072;2024-03-08T03:56:48;-6.10;99.90
39997;DHT22;25688;52.338;21.072;2024-03-08T03:59:18;-6.20;99.90
39997;DHT22;25688;52.338;21.072;2024-03-08T04:01:44;-5.90;99.90
39997;DHT22;25688;52.338;21.072;2024-03-08T04:04:10;-6.20;99.90
39997;DHT22;25688;52.338;21.072;2024-03-08T04:06:37;-6.30;99.90
39997;DHT22;25688;52.338;21.072;2024-03-08T04:09:03;-6.30;99.90
39997;DHT22;25688;52.338;21.072;2024-03-08T04:11:30;-6.20;99.90
39997;DHT22;25688;52.338;21.072;2024-03-08T04:17:42;-6.40;99.90
39997;DHT22;25688;52.338;21.072;2024-03-08T04:20:08;-6.20;99.90
39997;DHT22;25688;52.338;21.072;2024-03-08T04:22:36;-6.30;99.90
39997;DHT22;25688;52.338;21.072;2024-03-08T04:25:03;-6.40;99.90
39997;DHT22;25688;52.338;21.072;2024-03-08T04:27:31;-6.40;99.90
39997;DHT22;25688;52.338;21.072;2024-03-08T04:29:58;-6.40;99.90
39997;DHT22;25688;52.338;21.072;2024-03-08T04:35:41;-6.40;99.90
39997;DHT22;25688;52.338;21.072;2024-03-08T04:38:07;-6.40;99.90
39997;DHT22;25688;52.338;21.072;2024-03-08T04:40:33;-6.50;99.90
39997;DHT22;25688;52.338;21.072;2024-03-08T04:42:59;-6.50;99.90
39997;DHT22;25688;52.338;21.072;2024-03-08T04:45:25;-6.60;99.90
39997;DHT22;25688;52.338;21.072;2024-03-08T04:47:54;-6.50;99.90
39997;DHT22;25688;52.338;21.072;2024-03-08T04:50:31;-6.60;99.90
39997;DHT22;25688;52.338;21.072;2024-03-08T04:52:57;-6.60;99.90
39997;DHT22;25688;52.338;21.072;2024-03-08T04:55:29;-6.20;99.90
39997;DHT22;25688;52.338;21.072;2024-03-08T04:58:03;-6.60;99.90
39997;DHT22;25688;52.338;21.072;2024-03-08T05:00:31;-6.60;99.90
39997;DHT22;25688;52.338;21.072;2024-03-08T05:02:58;-6.50;99.90
39997;DHT22;25688;52.338;21.072;2024-03-08T05:05:24;-6.50;99.90
39997;DHT22;25688;52.338;21.072;2024-03-08T05:07:50;-6.50;99.90
39997;DHT22;25688;52.338;21.072;2024-03-08T05:10:16;-6.40;99.90
39997;DHT22;25688;52.338;21.072;2024-03-08T05:12:44;-6.50;99.90
39997;DHT22;25688;52.338;21.072;2024-03-08T05:15:10;-6.50;99.90
39997;DHT22;25688;52.338;21.072;2024-03-08T05:17:35;-6.30;99.90
39997;DHT22;25688;52.338;21.072;2024-03-08T05:20:02;-6.50;99.90
39997;DHT22;25688;52.338;21.072;2024-03-08T05:22:29;-6.40;99.90
39997;DHT22;25688;52.338;21.072;2024-03-08T05:24:55;-6.30;99.90
39997;DHT22;25688;52.338;21.072;2024-03-08T05:27:21;-6.40;99.90
39997;DHT22;25688;52.338;21.072;2024-03-08T05:29:46;-6.40;99.90
39997;DHT22;25688;52.338;21.072;2024-03-08T05:32:12;-6.40;99.90
39997;DHT22;25688;52.338;21.072;2024-03-08T05:34:38;-6.30;99.90
39997;DHT22;25688;52.338;21.072;2024-03-08T05:37:04;-6.30;99.90
39997;DHT22;25688;52.338;21.072;2024-03-08T05:39:53;-6.10;99.90
39997;DHT22;25688;52.338;21.072;2024-03-08T05:42:25;-6.20;99.90
39997;DHT22;25688;52.338;21.072;2024-03-08T05:44:51;-6.00;99.90
39997;DHT22;25688;52.338;21.072;2024-03-08T05:47:17;-6.10;99.90
39997;DHT22;25688;52.338;21.072;2024-03-08T05:49:43;-6.10;99.90
39997;DHT22;25688;52.338;21.072;2024-03-08T05:52:10;-6.00;99.90
39997;DHT22;25688;52.338;21.072;2024-03-08T05:54:35;-5.90;99.90
39997;DHT22;25688;52.338;21.072;2024-03-08T05:59:59;-5.70;99.90
39997;DHT22;25688;52.338;21.072;2024-03-08T06:02:28;-5.60;99.90
39997;DHT22;25688;52.338;21.072;2024-03-08T06:04:53;-5.50;99.90
39997;DHT22;25688;52.338;21.072;2024-03-08T06:07:20;-5.50;99.90
39997;DHT22;25688;52.338;21.072;2024-03-08T06:09:46;-5.40;99.90
39997;DHT22;25688;52.338;21.072;2024-03-08T06:12:13;-5.20;99.90
39997;DHT22;25688;52.338;21.072;2024-03-08T06:14:45;-5.10;99.90
39997;DHT22;25688;52.338;21.072;2024-03-08T06:17:10;-5.00;99.90
39997;DHT22;25688;52.338;21.072;2024-03-08T06:19:37;-4.80;99.90
39997;DHT22;25688;52.338;21.072;2024-03-08T06:22:02;-4.70;99.90
39997;DHT22;25688;52.338;21.072;2024-03-08T06:24:31;-4.60;99.90
39997;DHT22;25688;52.338;21.072;2024-03-08T06:26:58;-4.50;99.90
39997;DHT22;25688;52.338;21.072;2024-03-08T06:29:26;-4.20;99.90
39997;DHT22;25688;52.338;21.072;2024-03-08T06:32:27;-4.20;99.90
39997;DHT22;25688;52.338;21.072;2024-03-08T06:35:10;-4.10;99.90
39997;DHT22;25688;52.338;21.072;2024-03-08T06:38:28;-3.90;99.90
39997;DHT22;25688;52.338;21.072;2024-03-08T06:40:45;-3.80;99.90
39997;DHT22;25688;52.338;21.072;2024-03-08T06:43:35;-3.60;99.90
39997;DHT22;25688;52.338;21.072;2024-03-08T06:46:21;-3.50;99.90
39997;DHT22;25688;52.338;21.072;2024-03-08T06:48:47;-3.30;99.90
39997;DHT22;25688;52.338;21.072;2024-03-08T06:51:14;-3.20;99.90
39997;DHT22;25688;52.338;21.072;2024-03-08T06:53:40;-2.90;99.90
39997;DHT22;25688;52.338;21.072;2024-03-08T06:56:06;-3.00;99.90
39997;DHT22;25688;52.338;21.072;2024-03-08T06:58:33;-2.80;99.90
39997;DHT22;25688;52.338;21.072;2024-03-08T07:00:59;-2.70;99.90
39997;DHT22;25688;52.338;21.072;2024-03-08T07:03:25;-2.60;99.90
39997;DHT22;25688;52.338;21.072;2024-03-08T07:05:52;-2.40;99.90
39997;DHT22;25688;52.338;21.072;2024-03-08T07:08:18;-2.30;99.90
39997;DHT22;25688;52.338;21.072;2024-03-08T07:10:44;-2.10;99.90
39997;DHT22;25688;52.338;21.072;2024-03-08T07:13:10;-2.00;99.90
39997;DHT22;25688;52.338;21.072;2024-03-08T07:15:56;-1.90;99.90
39997;DHT22;25688;52.338;21.072;2024-03-08T07:18:35;-1.70;99.90
39997;DHT22;25688;52.338;21.072;2024-03-08T07:21:14;-1.50;99.90
39997;DHT22;25688;52.338;21.072;2024-03-08T07:23:53;-1.40;99.90
39997;DHT22;25688;52.338;21.072;2024-03-08T07:26:24;-1.30;99.90
39997;DHT22;25688;52.338;21.072;2024-03-08T07:28:50;-1.20;99.90
39997;DHT22;25688;52.338;21.072;2024-03-08T07:31:16;-1.10;99.90
39997;DHT22;25688;52.338;21.072;2024-03-08T07:33:42;-0.90;99.90
39997;DHT22;25688;52.338;21.072;2024-03-08T07:36:08;-0.90;99.90
39997;DHT22;25688;52.338;21.072;2024-03-08T07:38:50;-0.80;99.90
39997;DHT22;25688;52.338;21.072;2024-03-08T07:41:15;-0.70;99.90
39997;DHT22;25688;52.338;21.072;2024-03-08T07:43:41;-0.70;99.90
39997;DHT22;25688;52.338;21.072;2024-03-08T07:46:09;-0.50;99.90
39997;DHT22;25688;52.338;21.072;2024-03-08T07:48:36;-0.40;99.90
39997;DHT22;25688;52.338;21.072;2024-03-08T07:51:02;-0.40;99.90
39997;DHT22;25688;52.338;21.072;2024-03-08T07:53:31;-0.20;99.90
39997;DHT22;25688;52.338;21.072;2024-03-08T07:55:57;0.00;99.90
39997;DHT22;25688;52.338;21.072;2024-03-08T07:58:22;0.20;99.90
39997;DHT22;25688;52.338;21.072;2024-03-08T08:00:49;0.10;99.90
39997;DHT22;25688;52.338;21.072;2024-03-08T08:03:15;0.30;99.90
39997;DHT22;25688;52.338;21.072;2024-03-08T08:05:41;0.50;99.90
39997;DHT22;25688;52.338;21.072;2024-03-08T08:08:08;0.60;99.90
39997;DHT22;25688;52.338;21.072;2024-03-08T08:10:48;0.70;99.90
39997;DHT22;25688;52.338;21.072;2024-03-08T08:13:15;0.90;99.90
39997;DHT22;25688;52.338;21.072;2024-03-08T08:15:57;1.10;99.90
39997;DHT22;25688;52.338;21.072;2024-03-08T08:18:34;1.20;99.90
39997;DHT22;25688;52.338;21.072;2024-03-08T08:24:13;1.60;99.90
39997;DHT22;25688;52.338;21.072;2024-03-08T08:26:47;1.80;99.90
39997;DHT22;25688;52.338;21.072;2024-03-08T08:29:13;1.80;99.90
39997;DHT22;25688;52.338;21.072;2024-03-08T08:31:39;1.90;99.90
39997;DHT22;25688;52.338;21.072;2024-03-08T08:34:05;2.10;99.90
39997;DHT22;25688;52.338;21.072;2024-03-08T08:36:31;2.20;99.90
39997;DHT22;25688;52.338;21.072;2024-03-08T08:39:32;2.30;99.90
39997;DHT22;25688;52.338;21.072;2024-03-08T08:42:18;2.40;99.90
39997;DHT22;25688;52.338;21.072;2024-03-08T08:44:55;2.50;99.90
39997;DHT22;25688;52.338;21.072;2024-03-08T08:47:23;2.70;99.90
39997;DHT22;25688;52.338;21.072;2024-03-08T08:56:40;3.30;99.90
39997;DHT22;25688;52.338;21.072;2024-03-08T08:59:15;3.50;99.90
39997;DHT22;25688;52.338;21.072;2024-03-08T09:01:47;3.70;99.90
39997;DHT22;25688;52.338;21.072;2024-03-08T09:04:13;3.80;99.90
39997;DHT22;25688;52.338;21.072;2024-03-08T09:06:39;3.80;99.90
39997;DHT22;25688;52.338;21.072;2024-03-08T09:09:07;3.70;99.90
39997;DHT22;25688;52.338;21.072;2024-03-08T09:11:36;3.70;99.90
39997;DHT22;25688;52.338;21.072;2024-03-08T09:14:07;3.90;99.90
39997;DHT22;25688;52.338;21.072;2024-03-08T09:16:33;3.90;99.90
39997;DHT22;25688;52.338;21.072;2024-03-08T09:18:58;3.90;99.90
39997;DHT22;25688;52.338;21.072;2024-03-08T09:21:25;4.10;99.90
39997;DHT22;25688;52.338;21.072;2024-03-08T09:23:53;4.20;99.90
39997;DHT22;25688;52.338;21.072;2024-03-08T09:26:19;4.30;99.90
39997;DHT22;25688;52.338;21.072;2024-03-08T09:28:45;4.50;99.90
39997;DHT22;25688;52.338;21.072;2024-03-08T09:31:11;4.50;99.90
39997;DHT22;25688;52.338;21.072;2024-03-08T09:33:37;4.60;99.90
39997;DHT22;25688;52.338;21.072;2024-03-08T09:36:06;4.60;99.90
39997;DHT22;25688;52.338;21.072;2024-03-08T09:38:33;4.50;99.90
39997;DHT22;25688;52.338;21.072;2024-03-08T09:41:00;4.50;99.90
39997;DHT22;25688;52.338;21.072;2024-03-08T09:43:28;4.70;99.90
39997;DHT22;25688;52.338;21.072;2024-03-08T09:45:55;4.90;99.90
39997;DHT22;25688;52.338;21.072;2024-03-08T09:48:22;5.00;99.90
39997;DHT22;25688;52.338;21.072;2024-03-08T09:50:48;4.90;99.90
39997;DHT22;25688;52.338;21.072;2024-03-08T09:53:15;4.90;99.90
39997;DHT22;25688;52.338;21.072;2024-03-08T09:55:41;5.00;99.90
39997;DHT22;25688;52.338;21.072;2024-03-08T09:58:12;5.10;99.90
39997;DHT22;25688;52.338;21.072;2024-03-08T10:01:03;5.00;99.90
39997;DHT22;25688;52.338;21.072;2024-03-08T10:03:30;5.00;99.90
39997;DHT22;25688;52.338;21.072;2024-03-08T10:05:58;5.00;99.90
39997;DHT22;25688;52.338;21.072;2024-03-08T10:08:30;5.00;99.90
39997;DHT22;25688;52.338;21.072;2024-03-08T10:10:56;5.10;99.90
39997;DHT22;25688;52.338;21.072;2024-03-08T10:13:25;5.10;99.90
39997;DHT22;25688;52.338;21.072;2024-03-08T10:15:53;5.10;99.90
39997;DHT22;25688;52.338;21.072;2024-03-08T10:18:19;5.30;99.90
39997;DHT22;25688;52.338;21.072;2024-03-08T10:20:45;5.30;99.90
39997;DHT22;25688;52.338;21.072;2024-03-08T10:23:11;5.40;99.90
39997;DHT22;25688;52.338;21.072;2024-03-08T10:25:38;5.40;99.90
39997;DHT22;25688;52.338;21.072;2024-03-08T10:28:04;5.50;99.90
39997;DHT22;25688;52.338;21.072;2024-03-08T10:30:30;5.60;99.90
39997;DHT22;25688;52.338;21.072;2024-03-08T10:32:56;5.70;99.90
39997;DHT22;25688;52.338;21.072;2024-03-08T10:35:22;5.90;99.90
39997;DHT22;25688;52.338;21.072;2024-03-08T10:38:03;5.80;99.90
39997;DHT22;25688;52.338;21.072;2024-03-08T10:41:00;5.90;99.90
39997;DHT22;25688;52.338;21.072;2024-03-08T10:50:11;6.30;99.90
39997;DHT22;25688;52.338;21.072;2024-03-08T10:56:28;6.20;99.90
39997;DHT22;25688;52.338;21.072;2024-03-08T10:58:57;6.20;99.90
39997;DHT22;25688;52.338;21.072;2024-03-08T11:01:23;6.20;99.90
39997;DHT22;25688;52.338;21.072;2024-03-08T11:03:57;6.20;99.90
39997;DHT22;25688;52.338;21.072;2024-03-08T11:12:54;6.50;99.90
39997;DHT22;25688;52.338;21.072;2024-03-08T11:15:54;6.40;99.90
39997;DHT22;25688;52.338;21.072;2024-03-08T11:18:20;6.40;99.90
39997;DHT22;25688;52.338;21.072;2024-03-08T11:20:47;6.50;99.90
39997;DHT22;25688;52.338;21.072;2024-03-08T11:23:38;6.60;99.90
39997;DHT22;25688;52.338;21.072;2024-03-08T11:26:32;6.70;99.90
39997;DHT22;25688;52.338;21.072;2024-03-08T11:30:04;6.80;99.90
39997;DHT22;25688;52.338;21.072;2024-03-08T11:36:24;6.90;99.90
39997;DHT22;25688;52.338;21.072;2024-03-08T11:39:50;6.80;99.90
39997;DHT22;25688;52.338;21.072;2024-03-08T11:43:04;6.90;99.90
39997;DHT22;25688;52.338;21.072;2024-03-08T11:52:21;7.00;99.90
39997;DHT22;25688;52.338;21.072;2024-03-08T11:55:01;6.90;99.90
39997;DHT22;25688;52.338;21.072;2024-03-08T11:57:35;6.90;99.90
39997;DHT22;25688;52.338;21.072;2024-03-08T12:00:02;7.00;99.90
39997;DHT22;25688;52.338;21.072;2024-03-08T12:06:19;7.10;99.90
39997;DHT22;25688;52.338;21.072;2024-03-08T12:08:52;7.20;99.90
39997;DHT22;25688;52.338;21.072;2024-03-08T12:11:22;7.30;99.90
39997;DHT22;25688;52.338;21.072;2024-03-08T12:13:59;7.30;99.90
39997;DHT22;25688;52.338;21.072;2024-03-08T12:16:32;7.30;99.90
39997;DHT22;25688;52.338;21.072;2024-03-08T12:19:10;7.30;99.90
39997;DHT22;25688;52.338;21.072;2024-03-08T12:21:56;7.30;99.90
39997;DHT22;25688;52.338;21.072;2024-03-08T12:27:44;7.50;99.90
39997;DHT22;25688;52.338;21.072;2024-03-08T12:30:30;7.50;99.90
39997;DHT22;25688;52.338;21.072;2024-03-08T12:33:06;7.50;99.90
39997;DHT22;25688;52.338;21.072;2024-03-08T12:35:36;7.40;99.90
39997;DHT22;25688;52.338;21.072;2024-03-08T12:38:02;7.50;99.90
39997;DHT22;25688;52.338;21.072;2024-03-08T12:40:30;7.50;99.90
39997;DHT22;25688;52.338;21.072;2024-03-08T12:42:58;7.50;99.90
39997;DHT22;25688;52.338;21.072;2024-03-08T12:45:26;7.50;99.90
39997;DHT22;25688;52.338;21.072;2024-03-08T12:48:21;7.60;99.90
39997;DHT22;25688;52.338;21.072;2024-03-08T12:50:56;7.70;99.90
39997;DHT22;25688;52.338;21.072;2024-03-08T12:53:33;7.60;99.90
39997;DHT22;25688;52.338;21.072;2024-03-08T12:59:53;7.70;99.90
39997;DHT22;25688;52.338;21.072;2024-03-08T13:02:51;7.60;99.90
39997;DHT22;25688;52.338;21.072;2024-03-08T13:05:28;7.50;99.90
39997;DHT22;25688;52.338;21.072;2024-03-08T13:10:51;7.80;99.90
39997;DHT22;25688;52.338;21.072;2024-03-08T13:13:17;7.80;99.90
39997;DHT22;25688;52.338;21.072;2024-03-08T13:15:55;7.70;99.90
39997;DHT22;25688;52.338;21.072;2024-03-08T13:18:25;7.70;99.90
39997;DHT22;25688;52.338;21.072;2024-03-08T13:20:54;7.70;98.10
39997;DHT22;25688;52.338;21.072;2024-03-08T13:23:20;7.70;98.70
39997;DHT22;25688;52.338;21.072;2024-03-08T13:32:34;7.80;98.30
39997;DHT22;25688;52.338;21.072;2024-03-08T13:38:28;7.90;98.30
39997;DHT22;25688;52.338;21.072;2024-03-08T13:43:52;7.70;98.90
39997;DHT22;25688;52.338;21.072;2024-03-08T13:46:18;7.70;98.50
39997;DHT22;25688;52.338;21.072;2024-03-08T13:48:44;7.70;99.70
39997;DHT22;25688;52.338;21.072;2024-03-08T13:51:10;7.80;98.20
39997;DHT22;25688;52.338;21.072;2024-03-08T13:53:38;7.70;99.60
39997;DHT22;25688;52.338;21.072;2024-03-08T13:56:15;7.60;97.70
39997;DHT22;25688;52.338;21.072;2024-03-08T13:59:13;7.60;97.90
39997;DHT22;25688;52.338;21.072;2024-03-08T14:01:50;7.60;97.30
39997;DHT22;25688;52.338;21.072;2024-03-08T14:04:45;7.60;97.10
39997;DHT22;25688;52.338;21.072;2024-03-08T14:07:41;7.50;99.70
39997;DHT22;25688;52.338;21.072;2024-03-08T14:12:43;7.70;99.20
39997;DHT22;25688;52.338;21.072;2024-03-08T14:15:40;7.80;98.00
39997;DHT22;25688;52.338;21.072;2024-03-08T14:18:10;7.90;98.50
39997;DHT22;25688;52.338;21.072;2024-03-08T14:20:38;7.90;98.80
39997;DHT22;25688;52.338;21.072;2024-03-08T14:23:04;7.80;97.60
39997;DHT22;25688;52.338;21.072;2024-03-08T14:25:33;7.70;98.20
39997;DHT22;25688;52.338;21.072;2024-03-08T14:30:59;7.80;98.50
39997;DHT22;25688;52.338;21.072;2024-03-08T14:33:28;7.80;99.10
39997;DHT22;25688;52.338;21.072;2024-03-08T14:35:54;7.70;97.50
39997;DHT22;25688;52.338;21.072;2024-03-08T14:38:19;7.60;98.90
39997;DHT22;25688;52.338;21.072;2024-03-08T14:41:05;7.50;98.80
39997;DHT22;25688;52.338;21.072;2024-03-08T14:46:56;7.50;99.20
39997;DHT22;25688;52.338;21.072;2024-03-08T14:54:20;7.50;99.10
39997;DHT22;25688;52.338;21.072;2024-03-08T15:06:50;7.50;98.90
39997;DHT22;25688;52.338;21.072;2024-03-08T15:12:15;7.20;98.90
39997;DHT22;25688;52.338;21.072;2024-03-08T15:14:42;7.20;98.90
39997;DHT22;25688;52.338;21.072;2024-03-08T15:17:23;7.20;99.20
39997;DHT22;25688;52.338;21.072;2024-03-08T15:20:04;7.40;99.60
39997;DHT22;25688;52.338;21.072;2024-03-08T15:22:56;7.50;98.80
39997;DHT22;25688;52.338;21.072;2024-03-08T15:25:38;7.50;99.30
39997;DHT22;25688;52.338;21.072;2024-03-08T15:31:37;7.40;97.90
39997;DHT22;25688;52.338;21.072;2024-03-08T15:34:17;7.40;98.60
39997;DHT22;25688;52.338;21.072;2024-03-08T15:37:21;7.30;99.40
39997;DHT22;25688;52.338;21.072;2024-03-08T15:39:55;7.10;99.30
39997;DHT22;25688;52.338;21.072;2024-03-08T15:42:37;7.00;99.40
39997;DHT22;25688;52.338;21.072;2024-03-08T15:45:15;6.70;99.90
39997;DHT22;25688;52.338;21.072;2024-03-08T15:48:31;6.80;99.60
39997;DHT22;25688;52.338;21.072;2024-03-08T15:54:52;6.60;99.60
39997;DHT22;25688;52.338;21.072;2024-03-08T15:57:18;6.60;99.30
39997;DHT22;25688;52.338;21.072;2024-03-08T15:59:58;6.50;99.90
39997;DHT22;25688;52.338;21.072;2024-03-08T16:03:19;6.30;99.90
39997;DHT22;25688;52.338;21.072;2024-03-08T16:09:08;5.90;99.90
39997;DHT22;25688;52.338;21.072;2024-03-08T16:11:51;5.70;99.90
39997;DHT22;25688;52.338;21.072;2024-03-08T16:14:24;5.30;99.90
39997;DHT22;25688;52.338;21.072;2024-03-08T16:17:13;5.10;99.90
39997;DHT22;25688;52.338;21.072;2024-03-08T16:19:39;4.90;99.90
39997;DHT22;25688;52.338;21.072;2024-03-08T16:22:07;4.60;99.90
39997;DHT22;25688;52.338;21.072;2024-03-08T16:24:32;4.30;99.90
39997;DHT22;25688;52.338;21.072;2024-03-08T16:26:59;4.00;99.90
39997;DHT22;25688;52.338;21.072;2024-03-08T16:29:25;3.80;99.90
39997;DHT22;25688;52.338;21.072;2024-03-08T16:31:51;3.70;99.90
39997;DHT22;25688;52.338;21.072;2024-03-08T16:37:50;3.30;99.90
39997;DHT22;25688;52.338;21.072;2024-03-08T16:40:53;3.10;99.90
39997;DHT22;25688;52.338;21.072;2024-03-08T16:54:53;2.00;99.90
39997;DHT22;25688;52.338;21.072;2024-03-08T16:57:25;1.80;99.90
39997;DHT22;25688;52.338;21.072;2024-03-08T17:00:23;1.60;99.90
39997;DHT22;25688;52.338;21.072;2024-03-08T17:05:54;1.30;99.90
39997;DHT22;25688;52.338;21.072;2024-03-08T17:08:20;1.20;99.90
39997;DHT22;25688;52.338;21.072;2024-03-08T17:10:47;0.90;99.90
39997;DHT22;25688;52.338;21.072;2024-03-08T17:13:13;0.70;99.90
39997;DHT22;25688;52.338;21.072;2024-03-08T17:15:40;0.50;99.90
39997;DHT22;25688;52.338;21.072;2024-03-08T17:18:08;0.30;99.90
39997;DHT22;25688;52.338;21.072;2024-03-08T17:20:35;0.20;99.90
39997;DHT22;25688;52.338;21.072;2024-03-08T17:23:06;0.20;99.90
39997;DHT22;25688;52.338;21.072;2024-03-08T17:25:32;0.10;99.90
39997;DHT22;25688;52.338;21.072;2024-03-08T17:27:58;0.10;99.90
39997;DHT22;25688;52.338;21.072;2024-03-08T17:30:34;0.00;99.90
39997;DHT22;25688;52.338;21.072;2024-03-08T17:33:04;0.00;99.90
39997;DHT22;25688;52.338;21.072;2024-03-08T17:35:34;0.00;99.90
39997;DHT22;25688;52.338;21.072;2024-03-08T17:38:01;0.00;99.90
39997;DHT22;25688;52.338;21.072;2024-03-08T17:40:34;0.00;99.90
39997;DHT22;25688;52.338;21.072;2024-03-08T17:43:04;0.00;99.90
39997;DHT22;25688;52.338;21.072;2024-03-08T17:45:34;0.00;99.90
39997;DHT22;25688;52.338;21.072;2024-03-08T17:48:01;-0.10;99.90
39997;DHT22;25688;52.338;21.072;2024-03-08T17:50:29;-0.10;99.90
39997;DHT22;25688;52.338;21.072;2024-03-08T17:52:55;-0.20;99.90
39997;DHT22;25688;52.338;21.072;2024-03-08T17:55:22;-0.30;99.90
39997;DHT22;25688;52.338;21.072;2024-03-08T17:57:53;-0.30;99.90
39997;DHT22;25688;52.338;21.072;2024-03-08T18:00:21;-0.30;99.90
39997;DHT22;25688;52.338;21.072;2024-03-08T18:03:01;-0.40;99.90
39997;DHT22;25688;52.338;21.072;2024-03-08T18:05:28;-0.40;99.90
39997;DHT22;25688;52.338;21.072;2024-03-08T18:07:58;-0.30;99.90
39997;DHT22;25688;52.338;21.072;2024-03-08T18:10:25;-0.30;99.90
39997;DHT22;25688;52.338;21.072;2024-03-08T18:12:53;-0.40;99.90
39997;DHT22;25688;52.338;21.072;2024-03-08T18:15:26;-0.30;99.90
39997;DHT22;25688;52.338;21.072;2024-03-08T18:17:55;-0.50;99.90